sensor_id;sensor_type;location;lat;lon;timestamp;P1;durP1;ratioP1;P2;durP2;ratioP2
4166;SDS011;2097;51.104;7.150;2022-12-16T00:01:05;60.60;;;3.10;;
4166;SDS011;2097;51.104;7.150;2022-12-16T00:03:33;59.80;;;3.17;;
4166;SDS011;2097;51.104;7.150;2022-12-16T00:06:00;60.23;;;3.40;;
4166;SDS011;2097;51.104;7.150;2022-12-16T00:08:28;60.03;;;3.10;;
4166;SDS011;2097;51.104;7.150;2022-12-16T00:10:57;60.10;;;3.30;;
4166;SDS011;2097;51.104;7.150;2022-12-16T00:13:25;60.27;;;3.20;;
4166;SDS011;2097;51.104;7.150;2022-12-16T00:15:53;60.20;;;3.50;;
4166;SDS011;2097;51.104;7.150;2022-12-16T00:18:20;60.40;;;3.17;;
4166;SDS011;2097;51.104;7.150;2022-12-16T00:20:48;60.27;;;3.03;;
4166;SDS011;2097;51.104;7.150;2022-12-16T00:23:16;60.40;;;3.13;;
4166;SDS011;2097;51.104;7.150;2022-12-16T00:25:44;59.93;;;2.87;;
4166;SDS011;2097;51.104;7.150;2022-12-16T00:28:12;59.90;;;2.93;;
4166;SDS011;2097;51.104;7.150;2022-12-16T00:30:42;60.23;;;3.37;;
4166;SDS011;2097;51.104;7.150;2022-12-16T00:33:09;59.80;;;2.73;;
4166;SDS011;2097;51.104;7.150;2022-12-16T00:35:37;59.90;;;2.80;;
4166;SDS011;2097;51.104;7.150;2022-12-16T00:38:04;60.10;;;2.80;;
4166;SDS011;2097;51.104;7.150;2022-12-16T00:40:30;59.97;;;3.10;;
4166;SDS011;2097;51.104;7.150;2022-12-16T00:42:57;59.90;;;2.77;;
4166;SDS011;2097;51.104;7.150;2022-12-16T00:45:24;60.10;;;2.70;;
4166;SDS011;2097;51.104;7.150;2022-12-16T00:47:53;60.03;;;2.73;;
4166;SDS011;2097;51.104;7.150;2022-12-16T00:50:20;59.77;;;2.67;;
4166;SDS011;2097;51.104;7.150;2022-12-16T00:52:47;60.30;;;3.10;;
4166;SDS011;2097;51.104;7.150;2022-12-16T00:55:14;60.07;;;2.70;;
4166;SDS011;2097;51.104;7.150;2022-12-16T00:57:41;60.07;;;2.87;;
4166;SDS011;2097;51.104;7.150;2022-12-16T01:00:09;59.70;;;2.93;;
4166;SDS011;2097;51.104;7.150;2022-12-16T01:02:37;59.77;;;2.80;;
4166;SDS011;2097;51.104;7.150;2022-12-16T01:05:07;60.30;;;3.20;;
4166;SDS011;2097;51.104;7.150;2022-12-16T01:07:35;59.83;;;2.67;;
4166;SDS011;2097;51.104;7.150;2022-12-16T01:10:03;59.77;;;2.73;;
4166;SDS011;2097;51.104;7.150;2022-12-16T01:12:31;59.87;;;2.67;;
4166;SDS011;2097;51.104;7.150;2022-12-16T01:14:58;60.20;;;2.77;;
4166;SDS011;2097;51.104;7.150;2022-12-16T01:17:24;59.87;;;2.73;;
4166;SDS011;2097;51.104;7.150;2022-12-16T01:19:51;59.77;;;3.00;;
4166;SDS011;2097;51.104;7.150;2022-12-16T01:22:20;59.77;;;2.63;;
4166;SDS011;2097;51.104;7.150;2022-12-16T01:24:48;60.40;;;2.90;;
4166;SDS011;2097;51.104;7.150;2022-12-16T01:27:15;59.90;;;2.57;;
4166;SDS011;2097;51.104;7.150;2022-12-16T01:29:42;59.97;;;2.90;;
4166;SDS011;2097;51.104;7.150;2022-12-16T01:32:10;59.73;;;2.83;;
4166;SDS011;2097;51.104;7.150;2022-12-16T01:34:38;60.67;;;3.23;;
4166;SDS011;2097;51.104;7.150;2022-12-16T01:37:05;59.57;;;2.40;;
4166;SDS011;2097;51.104;7.150;2022-12-16T01:39:33;59.67;;;2.93;;
4166;SDS011;2097;51.104;7.150;2022-12-16T01:42:00;60.10;;;2.70;;
4166;SDS011;2097;51.104;7.150;2022-12-16T01:44:27;60.03;;;3.03;;
4166;SDS011;2097;51.104;7.150;2022-12-16T01:46:55;60.00;;;3.03;;
4166;SDS011;2097;51.104;7.150;2022-12-16T01:49:24;60.10;;;3.13;;
4166;SDS011;2097;51.104;7.150;2022-12-16T01:51:54;59.70;;;2.73;;
4166;SDS011;2097;51.104;7.150;2022-12-16T01:54:25;59.47;;;2.50;;
4166;SDS011;2097;51.104;7.150;2022-12-16T01:56:58;59.50;;;2.50;;
4166;SDS011;2097;51.104;7.150;2022-12-16T01:59:29;59.93;;;3.03;;
4166;SDS011;2097;51.104;7.150;2022-12-16T02:01:58;59.97;;;3.20;;
4166;SDS011;2097;51.104;7.150;2022-12-16T02:04:25;59.60;;;2.70;;
4166;SDS011;2097;51.104;7.150;2022-12-16T02:06:52;59.80;;;2.87;;
4166;SDS011;2097;51.104;7.150;2022-12-16T02:09:19;59.73;;;2.83;;
4166;SDS011;2097;51.104;7.150;2022-12-16T02:11:54;59.90;;;2.93;;
4166;SDS011;2097;51.104;7.150;2022-12-16T02:14:36;60.47;;;3.20;;
4166;SDS011;2097;51.104;7.150;2022-12-16T02:17:15;60.10;;;2.87;;
4166;SDS011;2097;51.104;7.150;2022-12-16T02:20:01;60.13;;;2.97;;
4166;SDS011;2097;51.104;7.150;2022-12-16T02:22:43;59.87;;;3.03;;
4166;SDS011;2097;51.104;7.150;2022-12-16T02:28:24;59.67;;;2.30;;
4166;SDS011;2097;51.104;7.150;2022-12-16T02:31:17;59.93;;;3.13;;
4166;SDS011;2097;51.104;7.150;2022-12-16T02:33:51;59.73;;;2.67;;
4166;SDS011;2097;51.104;7.150;2022-12-16T02:36:39;59.80;;;2.60;;
4166;SDS011;2097;51.104;7.150;2022-12-16T02:39:16;59.57;;;2.37;;
4166;SDS011;2097;51.104;7.150;2022-12-16T02:41:49;59.43;;;2.30;;
4166;SDS011;2097;51.104;7.150;2022-12-16T02:44:23;59.57;;;2.53;;
4166;SDS011;2097;51.104;7.150;2022-12-16T02:46:56;60.03;;;3.10;;
4166;SDS011;2097;51.104;7.150;2022-12-16T02:49:46;59.83;;;2.33;;
4166;SDS011;2097;51.104;7.150;2022-12-16T02:52:14;60.20;;;2.73;;
4166;SDS011;2097;51.104;7.150;2022-12-16T02:54:43;59.47;;;2.30;;
4166;SDS011;2097;51.104;7.150;2022-12-16T02:57:15;59.00;;;2.07;;
4166;SDS011;2097;51.104;7.150;2022-12-16T03:00:05;59.60;;;2.70;;
4166;SDS011;2097;51.104;7.150;2022-12-16T03:02:39;60.10;;;3.10;;
4166;SDS011;2097;51.104;7.150;2022-12-16T03:05:13;59.77;;;2.43;;
4166;SDS011;2097;51.104;7.150;2022-12-16T03:07:44;59.80;;;2.87;;
4166;SDS011;2097;51.104;7.150;2022-12-16T03:10:15;59.60;;;2.50;;
4166;SDS011;2097;51.104;7.150;2022-12-16T03:12:44;60.00;;;2.57;;
4166;SDS011;2097;51.104;7.150;2022-12-16T03:15:12;59.80;;;2.90;;
4166;SDS011;2097;51.104;7.150;2022-12-16T03:17:44;59.63;;;2.60;;
4166;SDS011;2097;51.104;7.150;2022-12-16T03:20:14;59.40;;;2.27;;
4166;SDS011;2097;51.104;7.150;2022-12-16T03:22:45;59.53;;;2.70;;
4166;SDS011;2097;51.104;7.150;2022-12-16T03:25:16;59.67;;;2.67;;
4166;SDS011;2097;51.104;7.150;2022-12-16T03:27:45;59.57;;;2.60;;
4166;SDS011;2097;51.104;7.150;2022-12-16T03:30:19;59.80;;;2.80;;
4166;SDS011;2097;51.104;7.150;2022-12-16T03:32:55;59.80;;;2.53;;
4166;SDS011;2097;51.104;7.150;2022-12-16T03:35:25;59.87;;;2.67;;
4166;SDS011;2097;51.104;7.150;2022-12-16T03:37:57;59.73;;;2.77;;
4166;SDS011;2097;51.104;7.150;2022-12-16T03:40:27;59.77;;;2.70;;
4166;SDS011;2097;51.104;7.150;2022-12-16T03:42:54;59.57;;;2.40;;
4166;SDS011;2097;51.104;7.150;2022-12-16T03:45:26;60.23;;;2.70;;
4166;SDS011;2097;51.104;7.150;2022-12-16T03:47:58;59.70;;;2.53;;
4166;SDS011;2097;51.104;7.150;2022-12-16T03:50:26;59.77;;;2.93;;
4166;SDS011;2097;51.104;7.150;2022-12-16T03:52:57;59.77;;;2.70;;
4166;SDS011;2097;51.104;7.150;2022-12-16T03:55:24;59.67;;;2.63;;
4166;SDS011;2097;51.104;7.150;2022-12-16T03:57:51;59.67;;;2.63;;
4166;SDS011;2097;51.104;7.150;2022-12-16T04:00:18;59.53;;;2.80;;
4166;SDS011;2097;51.104;7.150;2022-12-16T04:02:45;59.87;;;2.77;;
4166;SDS011;2097;51.104;7.150;2022-12-16T04:05:14;59.60;;;2.20;;
4166;SDS011;2097;51.104;7.150;2022-12-16T04:07:41;59.53;;;2.43;;
4166;SDS011;2097;51.104;7.150;2022-12-16T04:10:08;59.57;;;2.60;;
4166;SDS011;2097;51.104;7.150;2022-12-16T04:12:35;59.57;;;2.67;;
4166;SDS011;2097;51.104;7.150;2022-12-16T04:15:19;59.47;;;2.50;;
4166;SDS011;2097;51.104;7.150;2022-12-16T04:18:04;59.67;;;2.43;;
4166;SDS011;2097;51.104;7.150;2022-12-16T04:20:51;59.73;;;2.70;;
4166;SDS011;2097;51.104;7.150;2022-12-16T04:23:38;60.27;;;2.60;;
4166;SDS011;2097;51.104;7.150;2022-12-16T04:26:28;59.87;;;3.10;;
4166;SDS011;2097;51.104;7.150;2022-12-16T04:28:55;59.93;;;2.30;;
4166;SDS011;2097;51.104;7.150;2022-12-16T04:31:22;59.87;;;3.03;;
4166;SDS011;2097;51.104;7.150;2022-12-16T04:33:49;59.67;;;2.87;;
4166;SDS011;2097;51.104;7.150;2022-12-16T04:36:34;59.63;;;2.43;;
4166;SDS011;2097;51.104;7.150;2022-12-16T04:39:18;59.77;;;2.63;;
4166;SDS011;2097;51.104;7.150;2022-12-16T04:42:08;60.20;;;2.80;;
4166;SDS011;2097;51.104;7.150;2022-12-16T04:44:57;59.80;;;2.60;;
4166;SDS011;2097;51.104;7.150;2022-12-16T04:47:41;59.40;;;2.43;;
4166;SDS011;2097;51.104;7.150;2022-12-16T04:50:25;59.57;;;2.67;;
4166;SDS011;2097;51.104;7.150;2022-12-16T04:53:11;60.00;;;2.87;;
4166;SDS011;2097;51.104;7.150;2022-12-16T04:55:55;59.67;;;2.53;;
4166;SDS011;2097;51.104;7.150;2022-12-16T04:58:39;60.30;;;2.70;;
4166;SDS011;2097;51.104;7.150;2022-12-16T05:01:23;59.70;;;2.77;;
4166;SDS011;2097;51.104;7.150;2022-12-16T05:04:07;60.07;;;2.87;;
4166;SDS011;2097;51.104;7.150;2022-12-16T05:06:50;59.37;;;2.20;;
4166;SDS011;2097;51.104;7.150;2022-12-16T05:09:36;59.80;;;2.30;;
4166;SDS011;2097;51.104;7.150;2022-12-16T05:12:32;59.67;;;2.50;;
4166;SDS011;2097;51.104;7.150;2022-12-16T05:15:16;59.40;;;2.30;;
4166;SDS011;2097;51.104;7.150;2022-12-16T05:18:06;59.43;;;2.40;;
4166;SDS011;2097;51.104;7.150;2022-12-16T05:20:51;59.80;;;2.77;;
4166;SDS011;2097;51.104;7.150;2022-12-16T05:23:35;59.90;;;2.70;;
4166;SDS011;2097;51.104;7.150;2022-12-16T05:26:20;59.40;;;2.47;;
4166;SDS011;2097;51.104;7.150;2022-12-16T05:29:04;59.87;;;2.60;;
4166;SDS011;2097;51.104;7.150;2022-12-16T05:31:49;59.27;;;2.50;;
4166;SDS011;2097;51.104;7.150;2022-12-16T05:34:33;60.50;;;2.90;;
4166;SDS011;2097;51.104;7.150;2022-12-16T05:37:17;59.30;;;2.33;;
4166;SDS011;2097;51.104;7.150;2022-12-16T05:40:01;59.40;;;2.30;;
4166;SDS011;2097;51.104;7.150;2022-12-16T05:42:47;59.40;;;2.43;;
4166;SDS011;2097;51.104;7.150;2022-12-16T05:45:31;59.40;;;2.53;;
4166;SDS011;2097;51.104;7.150;2022-12-16T05:48:15;59.70;;;2.80;;
4166;SDS011;2097;51.104;7.150;2022-12-16T05:50:59;59.10;;;2.10;;
4166;SDS011;2097;51.104;7.150;2022-12-16T05:53:43;60.30;;;3.20;;
4166;SDS011;2097;51.104;7.150;2022-12-16T05:56:26;59.50;;;2.47;;
4166;SDS011;2097;51.104;7.150;2022-12-16T05:59:12;59.80;;;2.67;;
4166;SDS011;2097;51.104;7.150;2022-12-16T06:01:56;59.43;;;2.53;;
4166;SDS011;2097;51.104;7.150;2022-12-16T06:04:40;59.57;;;2.73;;
4166;SDS011;2097;51.104;7.150;2022-12-16T06:07:23;59.50;;;2.63;;
4166;SDS011;2097;51.104;7.150;2022-12-16T06:10:07;60.60;;;2.80;;
4166;SDS011;2097;51.104;7.150;2022-12-16T06:12:52;59.67;;;2.77;;
4166;SDS011;2097;51.104;7.150;2022-12-16T06:15:38;59.50;;;2.50;;
4166;SDS011;2097;51.104;7.150;2022-12-16T06:18:22;59.77;;;2.90;;
4166;SDS011;2097;51.104;7.150;2022-12-16T06:21:06;59.80;;;2.27;;
4166;SDS011;2097;51.104;7.150;2022-12-16T06:23:50;60.07;;;2.90;;
4166;SDS011;2097;51.104;7.150;2022-12-16T06:26:34;59.37;;;2.50;;
4166;SDS011;2097;51.104;7.150;2022-12-16T06:29:18;59.87;;;2.67;;
4166;SDS011;2097;51.104;7.150;2022-12-16T06:32:04;59.27;;;2.60;;
4166;SDS011;2097;51.104;7.150;2022-12-16T06:34:48;59.10;;;2.27;;
4166;SDS011;2097;51.104;7.150;2022-12-16T06:37:32;59.70;;;3.00;;
4166;SDS011;2097;51.104;7.150;2022-12-16T06:40:17;59.60;;;2.37;;
4166;SDS011;2097;51.104;7.150;2022-12-16T06:43:01;59.97;;;2.93;;
4166;SDS011;2097;51.104;7.150;2022-12-16T06:45:45;59.67;;;2.73;;
4166;SDS011;2097;51.104;7.150;2022-12-16T06:48:30;59.40;;;2.43;;
4166;SDS011;2097;51.104;7.150;2022-12-16T06:51:14;59.90;;;2.60;;
4166;SDS011;2097;51.104;7.150;2022-12-16T06:53:58;59.87;;;3.10;;
4166;SDS011;2097;51.104;7.150;2022-12-16T06:56:42;59.97;;;3.03;;
4166;SDS011;2097;51.104;7.150;2022-12-16T06:59:26;59.50;;;2.43;;
4166;SDS011;2097;51.104;7.150;2022-12-16T07:02:10;59.40;;;2.73;;
4166;SDS011;2097;51.104;7.150;2022-12-16T07:04:56;59.43;;;2.30;;
4166;SDS011;2097;51.104;7.150;2022-12-16T07:07:45;59.87;;;2.97;;
4166;SDS011;2097;51.104;7.150;2022-12-16T07:10:36;59.37;;;2.83;;
4166;SDS011;2097;51.104;7.150;2022-12-16T07:13:20;59.47;;;2.50;;
4166;SDS011;2097;51.104;7.150;2022-12-16T07:16:05;59.27;;;2.20;;
4166;SDS011;2097;51.104;7.150;2022-12-16T07:18:49;60.00;;;3.00;;
4166;SDS011;2097;51.104;7.150;2022-12-16T07:21:35;59.60;;;2.90;;
4166;SDS011;2097;51.104;7.150;2022-12-16T07:24:19;59.57;;;2.47;;
4166;SDS011;2097;51.104;7.150;2022-12-16T07:27:03;59.43;;;2.40;;
4166;SDS011;2097;51.104;7.150;2022-12-16T07:29:47;59.67;;;2.50;;
4166;SDS011;2097;51.104;7.150;2022-12-16T07:32:31;59.70;;;2.50;;
4166;SDS011;2097;51.104;7.150;2022-12-16T07:35:15;59.80;;;2.80;;
4166;SDS011;2097;51.104;7.150;2022-12-16T07:38:01;59.93;;;2.60;;
4166;SDS011;2097;51.104;7.150;2022-12-16T07:40:46;59.60;;;2.57;;
4166;SDS011;2097;51.104;7.150;2022-12-16T07:43:30;59.77;;;2.20;;
4166;SDS011;2097;51.104;7.150;2022-12-16T07:46:14;59.77;;;2.60;;
4166;SDS011;2097;51.104;7.150;2022-12-16T07:48:58;59.40;;;2.37;;
4166;SDS011;2097;51.104;7.150;2022-12-16T07:51:42;60.00;;;2.90;;
4166;SDS011;2097;51.104;7.150;2022-12-16T07:54:28;60.27;;;3.03;;
4166;SDS011;2097;51.104;7.150;2022-12-16T07:57:12;60.00;;;2.97;;
4166;SDS011;2097;51.104;7.150;2022-12-16T07:59:56;60.07;;;3.00;;
4166;SDS011;2097;51.104;7.150;2022-12-16T08:02:40;60.00;;;2.90;;
4166;SDS011;2097;51.104;7.150;2022-12-16T08:05:21;59.97;;;2.77;;
4166;SDS011;2097;51.104;7.150;2022-12-16T08:08:05;60.07;;;3.00;;
4166;SDS011;2097;51.104;7.150;2022-12-16T08:10:50;59.77;;;3.00;;
4166;SDS011;2097;51.104;7.150;2022-12-16T08:13:35;59.50;;;2.67;;
4166;SDS011;2097;51.104;7.150;2022-12-16T08:16:19;60.00;;;3.13;;
4166;SDS011;2097;51.104;7.150;2022-12-16T08:19:03;60.00;;;2.93;;
4166;SDS011;2097;51.104;7.150;2022-12-16T08:21:47;60.00;;;3.20;;
4166;SDS011;2097;51.104;7.150;2022-12-16T08:24:31;59.77;;;3.00;;
4166;SDS011;2097;51.104;7.150;2022-12-16T08:27:17;59.97;;;3.10;;
4166;SDS011;2097;51.104;7.150;2022-12-16T08:30:01;59.90;;;2.90;;
4166;SDS011;2097;51.104;7.150;2022-12-16T08:32:46;59.80;;;2.70;;
4166;SDS011;2097;51.104;7.150;2022-12-16T08:35:30;59.70;;;2.57;;
4166;SDS011;2097;51.104;7.150;2022-12-16T08:38:14;59.97;;;2.80;;
4166;SDS011;2097;51.104;7.150;2022-12-16T08:40:58;59.87;;;2.97;;
4166;SDS011;2097;51.104;7.150;2022-12-16T08:43:43;59.77;;;3.10;;
4166;SDS011;2097;51.104;7.150;2022-12-16T08:46:27;60.17;;;2.90;;
4166;SDS011;2097;51.104;7.150;2022-12-16T08:49:11;60.03;;;3.10;;
4166;SDS011;2097;51.104;7.150;2022-12-16T08:51:58;60.90;;;3.50;;
4166;SDS011;2097;51.104;7.150;2022-12-16T08:54:46;59.70;;;3.07;;
4166;SDS011;2097;51.104;7.150;2022-12-16T08:57:30;60.00;;;2.97;;
4166;SDS011;2097;51.104;7.150;2022-12-16T09:00:16;59.80;;;2.50;;
4166;SDS011;2097;51.104;7.150;2022-12-16T09:03:00;59.87;;;2.87;;
4166;SDS011;2097;51.104;7.150;2022-12-16T09:05:44;60.03;;;3.30;;
4166;SDS011;2097;51.104;7.150;2022-12-16T09:08:29;59.67;;;2.80;;
4166;SDS011;2097;51.104;7.150;2022-12-16T09:11:14;59.97;;;2.80;;
4166;SDS011;2097;51.104;7.150;2022-12-16T09:13:58;60.17;;;3.60;;
4166;SDS011;2097;51.104;7.150;2022-12-16T09:16:44;60.13;;;3.43;;
4166;SDS011;2097;51.104;7.150;2022-12-16T09:19:28;60.13;;;3.20;;
4166;SDS011;2097;51.104;7.150;2022-12-16T09:22:12;59.93;;;3.30;;
4166;SDS011;2097;51.104;7.150;2022-12-16T09:24:56;60.40;;;3.47;;
4166;SDS011;2097;51.104;7.150;2022-12-16T09:27:41;60.07;;;3.40;;
4166;SDS011;2097;51.104;7.150;2022-12-16T09:30:25;60.60;;;3.60;;
4166;SDS011;2097;51.104;7.150;2022-12-16T09:33:10;59.80;;;2.80;;
4166;SDS011;2097;51.104;7.150;2022-12-16T09:35:54;59.97;;;2.87;;
4166;SDS011;2097;51.104;7.150;2022-12-16T09:38:38;60.17;;;3.30;;
4166;SDS011;2097;51.104;7.150;2022-12-16T09:41:25;60.37;;;3.53;;
4166;SDS011;2097;51.104;7.150;2022-12-16T09:44:21;60.20;;;3.37;;
4166;SDS011;2097;51.104;7.150;2022-12-16T09:47:19;60.17;;;3.30;;
4166;SDS011;2097;51.104;7.150;2022-12-16T09:50:17;59.80;;;3.03;;
4166;SDS011;2097;51.104;7.150;2022-12-16T09:53:05;59.80;;;3.00;;
4166;SDS011;2097;51.104;7.150;2022-12-16T09:55:53;59.60;;;2.87;;
4166;SDS011;2097;51.104;7.150;2022-12-16T09:58:38;60.00;;;3.07;;
4166;SDS011;2097;51.104;7.150;2022-12-16T10:01:26;60.50;;;3.43;;
4166;SDS011;2097;51.104;7.150;2022-12-16T10:04:13;59.77;;;2.80;;
4166;SDS011;2097;51.104;7.150;2022-12-16T10:07:00;60.50;;;3.60;;
4166;SDS011;2097;51.104;7.150;2022-12-16T10:09:46;60.47;;;3.10;;
4166;SDS011;2097;51.104;7.150;2022-12-16T10:12:41;60.20;;;3.03;;
4166;SDS011;2097;51.104;7.150;2022-12-16T10:15:33;60.27;;;2.97;;
4166;SDS011;2097;51.104;7.150;2022-12-16T10:18:33;59.87;;;2.70;;
4166;SDS011;2097;51.104;7.150;2022-12-16T10:21:27;60.10;;;2.97;;
4166;SDS011;2097;51.104;7.150;2022-12-16T10:24:21;60.57;;;3.10;;
4166;SDS011;2097;51.104;7.150;2022-12-16T10:27:13;60.13;;;2.93;;
4166;SDS011;2097;51.104;7.150;2022-12-16T10:29:58;60.20;;;3.20;;
4166;SDS011;2097;51.104;7.150;2022-12-16T10:32:45;60.40;;;3.07;;
4166;SDS011;2097;51.104;7.150;2022-12-16T10:35:31;60.20;;;3.07;;
4166;SDS011;2097;51.104;7.150;2022-12-16T10:38:19;60.67;;;2.90;;
4166;SDS011;2097;51.104;7.150;2022-12-16T10:41:07;60.20;;;2.67;;
4166;SDS011;2097;51.104;7.150;2022-12-16T10:43:54;59.50;;;2.80;;
4166;SDS011;2097;51.104;7.150;2022-12-16T10:46:41;60.20;;;2.93;;
4166;SDS011;2097;51.104;7.150;2022-12-16T10:49:25;60.40;;;2.87;;
4166;SDS011;2097;51.104;7.150;2022-12-16T10:52:10;61.37;;;3.33;;
4166;SDS011;2097;51.104;7.150;2022-12-16T10:55:06;61.07;;;3.47;;
4166;SDS011;2097;51.104;7.150;2022-12-16T10:58:05;60.40;;;3.00;;
4166;SDS011;2097;51.104;7.150;2022-12-16T11:01:00;60.33;;;3.17;;
4166;SDS011;2097;51.104;7.150;2022-12-16T11:04:03;60.70;;;3.20;;
4166;SDS011;2097;51.104;7.150;2022-12-16T11:07:21;60.57;;;3.23;;
4166;SDS011;2097;51.104;7.150;2022-12-16T11:10:20;60.47;;;3.43;;
4166;SDS011;2097;51.104;7.150;2022-12-16T11:13:13;61.00;;;3.50;;
4166;SDS011;2097;51.104;7.150;2022-12-16T11:16:08;60.07;;;3.10;;
4166;SDS011;2097;51.104;7.150;2022-12-16T11:18:54;59.50;;;3.10;;
4166;SDS011;2097;51.104;7.150;2022-12-16T11:21:39;60.50;;;3.27;;
4166;SDS011;2097;51.104;7.150;2022-12-16T11:24:23;59.80;;;3.40;;
4166;SDS011;2097;51.104;7.150;2022-12-16T11:27:12;61.20;;;3.67;;
4166;SDS011;2097;51.104;7.150;2022-12-16T11:30:00;60.50;;;3.60;;
4166;SDS011;2097;51.104;7.150;2022-12-16T11:32:46;60.73;;;3.23;;
4166;SDS011;2097;51.104;7.150;2022-12-16T11:35:33;60.40;;;3.13;;
4166;SDS011;2097;51.104;7.150;2022-12-16T11:38:22;60.00;;;3.80;;
4166;SDS011;2097;51.104;7.150;2022-12-16T11:41:22;61.40;;;3.90;;
4166;SDS011;2097;51.104;7.150;2022-12-16T11:44:17;61.17;;;3.60;;
4166;SDS011;2097;51.104;7.150;2022-12-16T11:47:09;60.77;;;3.17;;
4166;SDS011;2097;51.104;7.150;2022-12-16T11:49:58;60.20;;;3.57;;
4166;SDS011;2097;51.104;7.150;2022-12-16T11:52:42;59.97;;;3.60;;
4166;SDS011;2097;51.104;7.150;2022-12-16T11:55:34;60.63;;;3.70;;
4166;SDS011;2097;51.104;7.150;2022-12-16T11:58:20;60.97;;;3.60;;
4166;SDS011;2097;51.104;7.150;2022-12-16T12:01:11;59.73;;;3.00;;
4166;SDS011;2097;51.104;7.150;2022-12-16T12:04:01;60.87;;;3.90;;
4166;SDS011;2097;51.104;7.150;2022-12-16T12:06:51;60.40;;;3.70;;
4166;SDS011;2097;51.104;7.150;2022-12-16T12:09:45;61.13;;;3.80;;
4166;SDS011;2097;51.104;7.150;2022-12-16T12:12:35;60.40;;;3.63;;
4166;SDS011;2097;51.104;7.150;2022-12-16T12:15:28;60.30;;;3.57;;
4166;SDS011;2097;51.104;7.150;2022-12-16T12:18:21;62.07;;;3.40;;
4166;SDS011;2097;51.104;7.150;2022-12-16T12:21:15;60.30;;;3.50;;
4166;SDS011;2097;51.104;7.150;2022-12-16T12:24:08;61.00;;;3.67;;
4166;SDS011;2097;51.104;7.150;2022-12-16T12:27:05;60.60;;;3.33;;
4166;SDS011;2097;51.104;7.150;2022-12-16T12:29:59;60.20;;;3.40;;
4166;SDS011;2097;51.104;7.150;2022-12-16T12:32:50;60.93;;;3.97;;
4166;SDS011;2097;51.104;7.150;2022-12-16T12:35:46;61.17;;;3.63;;
4166;SDS011;2097;51.104;7.150;2022-12-16T12:38:42;60.43;;;3.47;;
4166;SDS011;2097;51.104;7.150;2022-12-16T12:41:53;60.70;;;3.40;;
4166;SDS011;2097;51.104;7.150;2022-12-16T12:44:56;60.60;;;3.47;;
4166;SDS011;2097;51.104;7.150;2022-12-16T12:47:54;60.60;;;3.37;;
4166;SDS011;2097;51.104;7.150;2022-12-16T12:50:57;60.20;;;3.47;;
4166;SDS011;2097;51.104;7.150;2022-12-16T12:53:50;60.80;;;3.67;;
4166;SDS011;2097;51.104;7.150;2022-12-16T12:56:46;60.90;;;3.80;;
4166;SDS011;2097;51.104;7.150;2022-12-16T12:59:36;60.27;;;3.50;;
4166;SDS011;2097;51.104;7.150;2022-12-16T13:02:29;60.80;;;3.73;;
4166;SDS011;2097;51.104;7.150;2022-12-16T13:05:30;60.20;;;3.53;;
4166;SDS011;2097;51.104;7.150;2022-12-16T13:11:27;60.07;;;3.30;;
4166;SDS011;2097;51.104;7.150;2022-12-16T13:27:53;60.47;;;3.40;;
4166;SDS011;2097;51.104;7.150;2022-12-16T13:30:39;60.17;;;3.20;;
4166;SDS011;2097;51.104;7.150;2022-12-16T13:33:43;60.47;;;4.10;;
4166;SDS011;2097;51.104;7.150;2022-12-16T13:36:34;60.00;;;3.40;;
4166;SDS011;2097;51.104;7.150;2022-12-16T13:39:20;60.17;;;3.37;;
4166;SDS011;2097;51.104;7.150;2022-12-16T13:45:27;60.47;;;3.37;;
4166;SDS011;2097;51.104;7.150;2022-12-16T13:48:27;60.50;;;3.40;;
4166;SDS011;2097;51.104;7.150;2022-12-16T13:58:00;60.17;;;3.30;;
4166;SDS011;2097;51.104;7.150;2022-12-16T14:00:59;59.90;;;3.73;;
4166;SDS011;2097;51.104;7.150;2022-12-16T14:03:48;60.63;;;3.67;;
4166;SDS011;2097;51.104;7.150;2022-12-16T14:06:36;60.70;;;3.53;;
4166;SDS011;2097;51.104;7.150;2022-12-16T14:09:34;61.07;;;3.70;;
4166;SDS011;2097;51.104;7.150;2022-12-16T14:12:23;60.70;;;3.90;;
4166;SDS011;2097;51.104;7.150;2022-12-16T14:15:24;60.07;;;3.50;;
4166;SDS011;2097;51.104;7.150;2022-12-16T14:18:20;59.93;;;3.40;;
4166;SDS011;2097;51.104;7.150;2022-12-16T14:21:30;60.87;;;3.90;;
4166;SDS011;2097;51.104;7.150;2022-12-16T14:24:20;60.37;;;4.10;;
4166;SDS011;2097;51.104;7.150;2022-12-16T14:27:14;60.17;;;3.53;;
4166;SDS011;2097;51.104;7.150;2022-12-16T14:30:00;59.77;;;3.50;;
4166;SDS011;2097;51.104;7.150;2022-12-16T14:32:46;61.10;;;4.17;;
4166;SDS011;2097;51.104;7.150;2022-12-16T14:35:31;59.80;;;3.50;;
4166;SDS011;2097;51.104;7.150;2022-12-16T14:38:20;61.27;;;4.07;;
4166;SDS011;2097;51.104;7.150;2022-12-16T14:41:10;60.57;;;3.93;;
4166;SDS011;2097;51.104;7.150;2022-12-16T14:43:55;60.77;;;3.80;;
4166;SDS011;2097;51.104;7.150;2022-12-16T14:46:40;60.67;;;4.07;;
4166;SDS011;2097;51.104;7.150;2022-12-16T14:49:25;60.23;;;3.57;;
4166;SDS011;2097;51.104;7.150;2022-12-16T14:52:17;60.77;;;3.73;;
4166;SDS011;2097;51.104;7.150;2022-12-16T14:55:13;60.80;;;4.00;;
4166;SDS011;2097;51.104;7.150;2022-12-16T14:58:07;61.10;;;3.93;;
4166;SDS011;2097;51.104;7.150;2022-12-16T15:00:53;61.17;;;3.83;;
4166;SDS011;2097;51.104;7.150;2022-12-16T15:03:44;60.60;;;3.90;;
4166;SDS011;2097;51.104;7.150;2022-12-16T15:06:30;61.00;;;4.10;;
4166;SDS011;2097;51.104;7.150;2022-12-16T15:09:23;60.70;;;3.57;;
4166;SDS011;2097;51.104;7.150;2022-12-16T15:12:11;61.10;;;4.00;;
4166;SDS011;2097;51.104;7.150;2022-12-16T15:14:58;61.07;;;3.70;;
4166;SDS011;2097;51.104;7.150;2022-12-16T15:17:48;60.93;;;4.10;;
4166;SDS011;2097;51.104;7.150;2022-12-16T15:20:35;60.87;;;3.97;;
4166;SDS011;2097;51.104;7.150;2022-12-16T15:23:35;62.03;;;4.30;;
4166;SDS011;2097;51.104;7.150;2022-12-16T15:26:24;60.77;;;4.20;;
4166;SDS011;2097;51.104;7.150;2022-12-16T15:29:26;63.00;;;4.27;;
4166;SDS011;2097;51.104;7.150;2022-12-16T15:32:27;60.57;;;3.63;;
4166;SDS011;2097;51.104;7.150;2022-12-16T15:35:22;60.47;;;3.43;;
4166;SDS011;2097;51.104;7.150;2022-12-16T15:38:09;61.50;;;3.90;;
4166;SDS011;2097;51.104;7.150;2022-12-16T15:40:54;60.77;;;3.73;;
4166;SDS011;2097;51.104;7.150;2022-12-16T15:43:40;60.93;;;3.97;;
4166;SDS011;2097;51.104;7.150;2022-12-16T15:46:28;60.63;;;3.67;;
4166;SDS011;2097;51.104;7.150;2022-12-16T15:49:17;61.30;;;4.17;;
4166;SDS011;2097;51.104;7.150;2022-12-16T15:55:22;61.20;;;3.90;;
4166;SDS011;2097;51.104;7.150;2022-12-16T15:58:20;60.73;;;4.10;;
4166;SDS011;2097;51.104;7.150;2022-12-16T16:01:09;61.50;;;3.90;;
4166;SDS011;2097;51.104;7.150;2022-12-16T16:03:55;60.80;;;3.83;;
4166;SDS011;2097;51.104;7.150;2022-12-16T16:06:41;61.30;;;4.50;;
4166;SDS011;2097;51.104;7.150;2022-12-16T16:09:29;60.67;;;4.07;;
4166;SDS011;2097;51.104;7.150;2022-12-16T16:12:15;60.87;;;4.00;;
4166;SDS011;2097;51.104;7.150;2022-12-16T16:15:01;61.40;;;4.23;;
4166;SDS011;2097;51.104;7.150;2022-12-16T16:17:49;60.70;;;4.10;;
4166;SDS011;2097;51.104;7.150;2022-12-16T16:20:37;60.90;;;4.10;;
4166;SDS011;2097;51.104;7.150;2022-12-16T16:23:22;61.77;;;4.23;;
4166;SDS011;2097;51.104;7.150;2022-12-16T16:26:07;61.40;;;4.27;;
4166;SDS011;2097;51.104;7.150;2022-12-16T16:28:52;60.97;;;4.27;;
4166;SDS011;2097;51.104;7.150;2022-12-16T16:31:36;60.60;;;3.80;;
4166;SDS011;2097;51.104;7.150;2022-12-16T16:34:21;61.77;;;4.10;;
4166;SDS011;2097;51.104;7.150;2022-12-16T16:37:07;61.10;;;3.77;;
4166;SDS011;2097;51.104;7.150;2022-12-16T16:39:55;62.20;;;4.50;;
4166;SDS011;2097;51.104;7.150;2022-12-16T16:42:42;71.33;;;6.90;;
4166;SDS011;2097;51.104;7.150;2022-12-16T16:45:34;71.10;;;5.43;;
4166;SDS011;2097;51.104;7.150;2022-12-16T16:48:19;72.80;;;6.27;;
4166;SDS011;2097;51.104;7.150;2022-12-16T16:51:05;62.90;;;4.97;;
4166;SDS011;2097;51.104;7.150;2022-12-16T16:53:49;68.40;;;4.97;;
4166;SDS011;2097;51.104;7.150;2022-12-16T16:56:33;72.07;;;5.37;;
4166;SDS011;2097;51.104;7.150;2022-12-16T16:59:19;79.60;;;6.70;;
4166;SDS011;2097;51.104;7.150;2022-12-16T17:02:08;62.87;;;4.90;;
4166;SDS011;2097;51.104;7.150;2022-12-16T17:04:58;71.47;;;5.23;;
4166;SDS011;2097;51.104;7.150;2022-12-16T17:07:43;94.03;;;7.10;;
4166;SDS011;2097;51.104;7.150;2022-12-16T17:10:27;82.70;;;5.93;;